sensor_id;sensor_type;location;lat;lon;timestamp;pressure;altitude;pressure_sealevel;temperature
6454;BMP180;3260;52.438;13.502;2022-08-19T04:00:43;100195.00;;;21.90
6454;BMP180;3260;52.438;13.502;2022-08-19T04:03:11;100199.00;;;22.10
6454;BMP180;3260;52.438;13.502;2022-08-19T04:05:39;100208.00;;;22.00
6454;BMP180;3260;52.438;13.502;2022-08-19T04:08:07;100207.00;;;21.80
6454;BMP180;3260;52.438;13.502;2022-08-19T04:10:39;100204.00;;;22.10
6454;BMP180;3260;52.438;13.502;2022-08-19T04:13:08;100213.00;;;21.90
6454;BMP180;3260;52.438;13.502;2022-08-19T04:15:40;100201.00;;;22.30
6454;BMP180;3260;52.438;13.502;2022-08-19T04:18:10;100210.00;;;22.40
6454;BMP180;3260;52.438;13.502;2022-08-19T04:20:41;100204.00;;;22.40
6454;BMP180;3260;52.438;13.502;2022-08-19T04:23:10;100216.00;;;22.60
6454;BMP180;3260;52.438;13.502;2022-08-19T04:25:41;100220.00;;;22.60
6454;BMP180;3260;52.438;13.502;2022-08-19T04:28:12;100210.00;;;22.40
6454;BMP180;3260;52.438;13.502;2022-08-19T04:30:44;100209.00;;;22.70
6454;BMP180;3260;52.438;13.502;2022-08-19T04:33:17;100210.00;;;22.80
6454;BMP180;3260;52.438;13.502;2022-08-19T04:35:54;100212.00;;;23.20
6454;BMP180;3260;52.438;13.502;2022-08-19T04:38:24;100211.00;;;23.30
6454;BMP180;3260;52.438;13.502;2022-08-19T04:40:53;100211.00;;;23.00
6454;BMP180;3260;52.438;13.502;2022-08-19T04:43:39;100220.00;;;23.10
6454;BMP180;3260;52.438;13.502;2022-08-19T04:46:09;100217.00;;;23.30
6454;BMP180;3260;52.438;13.502;2022-08-19T04:48:55;100216.00;;;23.30
6454;BMP180;3260;52.438;13.502;2022-08-19T04:51:24;100216.00;;;23.40
6454;BMP180;3260;52.438;13.502;2022-08-19T04:53:53;100192.00;;;23.40
6454;BMP180;3260;52.438;13.502;2022-08-19T04:56:21;100200.00;;;23.30
6454;BMP180;3260;52.438;13.502;2022-08-19T04:58:49;100198.00;;;23.80
6454;BMP180;3260;52.438;13.502;2022-08-19T05:01:21;100203.00;;;24.00
6454;BMP180;3260;52.438;13.502;2022-08-19T05:03:51;100206.00;;;23.70
6454;BMP180;3260;52.438;13.502;2022-08-19T05:06:23;100199.00;;;23.80
6454;BMP180;3260;52.438;13.502;2022-08-19T05:08:52;100203.00;;;24.20
6454;BMP180;3260;52.438;13.502;2022-08-19T05:11:24;100215.00;;;24.00
6454;BMP180;3260;52.438;13.502;2022-08-19T05:13:53;100204.00;;;23.90
6454;BMP180;3260;52.438;13.502;2022-08-19T05:16:25;100187.00;;;23.70
6454;BMP180;3260;52.438;13.502;2022-08-19T05:18:54;100187.00;;;24.00
6454;BMP180;3260;52.438;13.502;2022-08-19T05:21:42;100183.00;;;24.00
6454;BMP180;3260;52.438;13.502;2022-08-19T05:24:29;100185.00;;;23.80
6454;BMP180;3260;52.438;13.502;2022-08-19T05:26:58;100181.00;;;23.60
6454;BMP180;3260;52.438;13.502;2022-08-19T05:29:27;100181.00;;;24.20
6454;BMP180;3260;52.438;13.502;2022-08-19T05:32:05;100181.00;;;24.30
6454;BMP180;3260;52.438;13.502;2022-08-19T05:34:35;100179.00;;;24.10
6454;BMP180;3260;52.438;13.502;2022-08-19T05:37:07;100177.00;;;24.40
6454;BMP180;3260;52.438;13.502;2022-08-19T05:39:37;100186.00;;;24.30
6454;BMP180;3260;52.438;13.502;2022-08-19T05:42:08;100183.00;;;24.20
6454;BMP180;3260;52.438;13.502;2022-08-19T05:44:41;100186.00;;;24.30
6454;BMP180;3260;52.438;13.502;2022-08-19T05:47:13;100188.00;;;24.50
6454;BMP180;3260;52.438;13.502;2022-08-19T05:49:42;100194.00;;;24.70
6454;BMP180;3260;52.438;13.502;2022-08-19T05:52:15;100200.00;;;24.80
6454;BMP180;3260;52.438;13.502;2022-08-19T05:54:45;100200.00;;;24.90
6454;BMP180;3260;52.438;13.502;2022-08-19T05:57:18;100206.00;;;24.80
6454;BMP180;3260;52.438;13.502;2022-08-19T05:59:46;100205.00;;;25.20
6454;BMP180;3260;52.438;13.502;2022-08-19T06:02:19;100204.00;;;25.20
6454;BMP180;3260;52.438;13.502;2022-08-19T06:04:47;100206.00;;;25.40
6454;BMP180;3260;52.438;13.502;2022-08-19T06:07:17;100212.00;;;25.20
6454;BMP180;3260;52.438;13.502;2022-08-19T06:09:46;100216.00;;;25.00
6454;BMP180;3260;52.438;13.502;2022-08-19T06:12:26;100220.00;;;25.30
6454;BMP180;3260;52.438;13.502;2022-08-19T06:14:58;100219.00;;;25.50
6454;BMP180;3260;52.438;13.502;2022-08-19T06:17:28;100217.00;;;25.30
6454;BMP180;3260;52.438;13.502;2022-08-19T06:19:57;100213.00;;;25.50
6454;BMP180;3260;52.438;13.502;2022-08-19T06:22:28;100219.00;;;25.60
6454;BMP180;3260;52.438;13.502;2022-08-19T06:24:56;100222.00;;;25.70
6454;BMP180;3260;52.438;13.502;2022-08-19T06:27:24;100213.00;;;25.60
6454;BMP180;3260;52.438;13.502;2022-08-19T06:29:52;100208.00;;;26.00
6454;BMP180;3260;52.438;13.502;2022-08-19T06:32:20;100208.00;;;26.00
6454;BMP180;3260;52.438;13.502;2022-08-19T06:34:48;100202.00;;;25.90
6454;BMP180;3260;52.438;13.502;2022-08-19T06:37:16;100212.00;;;25.80
6454;BMP180;3260;52.438;13.502;2022-08-19T06:39:46;100211.00;;;25.90
6454;BMP180;3260;52.438;13.502;2022-08-19T06:42:14;100233.00;;;26.20
6454;BMP180;3260;52.438;13.502;2022-08-19T06:44:48;100235.00;;;25.70
6454;BMP180;3260;52.438;13.502;2022-08-19T06:47:21;100222.00;;;26.30
6454;BMP180;3260;52.438;13.502;2022-08-19T06:49:54;100235.00;;;26.40
6454;BMP180;3260;52.438;13.502;2022-08-19T06:52:27;100239.00;;;26.60
6454;BMP180;3260;52.438;13.502;2022-08-19T06:54:56;100246.00;;;27.00
6454;BMP180;3260;52.438;13.502;2022-08-19T06:57:26;100242.00;;;26.90
6454;BMP180;3260;52.438;13.502;2022-08-19T06:59:59;100254.00;;;26.40
6454;BMP180;3260;52.438;13.502;2022-08-19T07:02:27;100262.00;;;26.60
6454;BMP180;3260;52.438;13.502;2022-08-19T07:04:56;100270.00;;;26.60
6454;BMP180;3260;52.438;13.502;2022-08-19T07:07:25;100259.00;;;26.30
6454;BMP180;3260;52.438;13.502;2022-08-19T07:09:53;100257.00;;;26.60
6454;BMP180;3260;52.438;13.502;2022-08-19T07:12:30;100251.00;;;26.40
6454;BMP180;3260;52.438;13.502;2022-08-19T07:15:02;100254.00;;;27.00
6454;BMP180;3260;52.438;13.502;2022-08-19T07:17:31;100248.00;;;27.10
6454;BMP180;3260;52.438;13.502;2022-08-19T07:20:00;100241.00;;;27.50
6454;BMP180;3260;52.438;13.502;2022-08-19T07:22:36;100256.00;;;27.00
6454;BMP180;3260;52.438;13.502;2022-08-19T07:25:07;100257.00;;;27.20
6454;BMP180;3260;52.438;13.502;2022-08-19T07:27:37;100252.00;;;27.40
6454;BMP180;3260;52.438;13.502;2022-08-19T07:30:08;100261.00;;;27.70
6454;BMP180;3260;52.438;13.502;2022-08-19T07:32:38;100272.00;;;28.20
6454;BMP180;3260;52.438;13.502;2022-08-19T07:35:08;100281.00;;;28.40
6454;BMP180;3260;52.438;13.502;2022-08-19T07:37:37;100284.00;;;28.40
6454;BMP180;3260;52.438;13.502;2022-08-19T07:40:07;100288.00;;;28.40
6454;BMP180;3260;52.438;13.502;2022-08-19T07:42:37;100288.00;;;28.30
6454;BMP180;3260;52.438;13.502;2022-08-19T07:45:07;100288.00;;;27.80
6454;BMP180;3260;52.438;13.502;2022-08-19T07:47:36;100286.00;;;28.10
6454;BMP180;3260;52.438;13.502;2022-08-19T07:50:18;100288.00;;;28.00
6454;BMP180;3260;52.438;13.502;2022-08-19T07:52:48;100295.00;;;28.30
6454;BMP180;3260;52.438;13.502;2022-08-19T07:55:25;100291.00;;;28.40
6454;BMP180;3260;52.438;13.502;2022-08-19T07:58:14;100288.00;;;28.40
6454;BMP180;3260;52.438;13.502;2022-08-19T08:00:46;100291.00;;;28.60
6454;BMP180;3260;52.438;13.502;2022-08-19T08:03:17;100304.00;;;28.50
6454;BMP180;3260;52.438;13.502;2022-08-19T08:05:47;100288.00;;;28.60
6454;BMP180;3260;52.438;13.502;2022-08-19T08:08:32;100313.00;;;29.00
6454;BMP180;3260;52.438;13.502;2022-08-19T08:11:20;100310.00;;;28.90
6454;BMP180;3260;52.438;13.502;2022-08-19T08:13:51;100321.00;;;28.70
6454;BMP180;3260;52.438;13.502;2022-08-19T08:16:34;100325.00;;;29.00
6454;BMP180;3260;52.438;13.502;2022-08-19T08:19:14;100333.00;;;29.30
6454;BMP180;3260;52.438;13.502;2022-08-19T08:21:53;100332.00;;;28.60
6454;BMP180;3260;52.438;13.502;2022-08-19T08:24:22;100322.00;;;28.90
6454;BMP180;3260;52.438;13.502;2022-08-19T08:26:55;100334.00;;;29.30
6454;BMP180;3260;52.438;13.502;2022-08-19T08:29:26;100339.00;;;28.50
6454;BMP180;3260;52.438;13.502;2022-08-19T08:32:01;100331.00;;;28.60
6454;BMP180;3260;52.438;13.502;2022-08-19T08:34:40;100322.00;;;29.40
6454;BMP180;3260;52.438;13.502;2022-08-19T08:37:08;100336.00;;;29.50
6454;BMP180;3260;52.438;13.502;2022-08-19T08:39:36;100331.00;;;29.10
6454;BMP180;3260;52.438;13.502;2022-08-19T08:42:12;100325.00;;;29.30
6454;BMP180;3260;52.438;13.502;2022-08-19T08:44:53;100332.00;;;29.40
6454;BMP180;3260;52.438;13.502;2022-08-19T08:47:31;100333.00;;;29.70
6454;BMP180;3260;52.438;13.502;2022-08-19T08:50:09;100335.00;;;29.40
6454;BMP180;3260;52.438;13.502;2022-08-19T08:52:45;100326.00;;;30.00
6454;BMP180;3260;52.438;13.502;2022-08-19T08:55:17;100324.00;;;29.90
6454;BMP180;3260;52.438;13.502;2022-08-19T08:57:54;100335.00;;;29.70
6454;BMP180;3260;52.438;13.502;2022-08-19T09:00:28;100335.00;;;29.70
6454;BMP180;3260;52.438;13.502;2022-08-19T09:02:59;100337.00;;;29.50
6454;BMP180;3260;52.438;13.502;2022-08-19T09:05:40;100340.00;;;28.90
6454;BMP180;3260;52.438;13.502;2022-08-19T09:08:26;100335.00;;;29.50
6454;BMP180;3260;52.438;13.502;2022-08-19T09:10:57;100337.00;;;30.00
6454;BMP180;3260;52.438;13.502;2022-08-19T09:13:32;100335.00;;;29.80
6454;BMP180;3260;52.438;13.502;2022-08-19T09:16:08;100346.00;;;31.20
6454;BMP180;3260;52.438;13.502;2022-08-19T09:18:41;100346.00;;;31.00
6454;BMP180;3260;52.438;13.502;2022-08-19T09:21:10;100335.00;;;30.70
6454;BMP180;3260;52.438;13.502;2022-08-19T09:23:38;100326.00;;;31.20
6454;BMP180;3260;52.438;13.502;2022-08-19T09:26:08;100332.00;;;31.30
6454;BMP180;3260;52.438;13.502;2022-08-19T09:28:44;100326.00;;;30.90
6454;BMP180;3260;52.438;13.502;2022-08-19T09:31:19;100323.00;;;31.60
6454;BMP180;3260;52.438;13.502;2022-08-19T09:33:49;100336.00;;;30.10
6454;BMP180;3260;52.438;13.502;2022-08-19T09:36:20;100335.00;;;29.10
6454;BMP180;3260;52.438;13.502;2022-08-19T09:39:02;100335.00;;;29.40
6454;BMP180;3260;52.438;13.502;2022-08-19T09:41:42;100334.00;;;29.30
6454;BMP180;3260;52.438;13.502;2022-08-19T09:44:15;100331.00;;;28.20
6454;BMP180;3260;52.438;13.502;2022-08-19T09:46:46;100332.00;;;28.20
6454;BMP180;3260;52.438;13.502;2022-08-19T09:49:16;100334.00;;;28.30
6454;BMP180;3260;52.438;13.502;2022-08-19T09:51:45;100326.00;;;28.30
6454;BMP180;3260;52.438;13.502;2022-08-19T09:54:18;100323.00;;;27.80
6454;BMP180;3260;52.438;13.502;2022-08-19T09:56:50;100321.00;;;28.80
6454;BMP180;3260;52.438;13.502;2022-08-19T09:59:18;100309.00;;;28.70
6454;BMP180;3260;52.438;13.502;2022-08-19T10:01:48;100311.00;;;29.30
6454;BMP180;3260;52.438;13.502;2022-08-19T10:04:17;100317.00;;;29.60
6454;BMP180;3260;52.438;13.502;2022-08-19T10:06:50;100310.00;;;29.60
6454;BMP180;3260;52.438;13.502;2022-08-19T10:09:20;100295.00;;;29.30
6454;BMP180;3260;52.438;13.502;2022-08-19T10:12:02;100311.00;;;29.30
6454;BMP180;3260;52.438;13.502;2022-08-19T10:14:32;100312.00;;;29.60
6454;BMP180;3260;52.438;13.502;2022-08-19T10:17:02;100313.00;;;29.50
6454;BMP180;3260;52.438;13.502;2022-08-19T10:19:45;100305.00;;;28.80
6454;BMP180;3260;52.438;13.502;2022-08-19T10:22:22;100308.00;;;29.20
6454;BMP180;3260;52.438;13.502;2022-08-19T10:24:52;100313.00;;;28.70
6454;BMP180;3260;52.438;13.502;2022-08-19T10:27:20;100301.00;;;28.30
6454;BMP180;3260;52.438;13.502;2022-08-19T10:29:48;100321.00;;;27.70
6454;BMP180;3260;52.438;13.502;2022-08-19T10:32:18;100314.00;;;27.10
6454;BMP180;3260;52.438;13.502;2022-08-19T10:35:00;100314.00;;;27.00
6454;BMP180;3260;52.438;13.502;2022-08-19T10:37:31;100304.00;;;26.80
6454;BMP180;3260;52.438;13.502;2022-08-19T10:40:01;100302.00;;;26.90
6454;BMP180;3260;52.438;13.502;2022-08-19T10:42:30;100308.00;;;27.00
6454;BMP180;3260;52.438;13.502;2022-08-19T10:44:59;100305.00;;;27.10
6454;BMP180;3260;52.438;13.502;2022-08-19T10:47:28;100308.00;;;27.10
6454;BMP180;3260;52.438;13.502;2022-08-19T10:49:57;100314.00;;;27.50
6454;BMP180;3260;52.438;13.502;2022-08-19T10:52:46;100304.00;;;27.20
6454;BMP180;3260;52.438;13.502;2022-08-19T10:55:19;100303.00;;;27.00
6454;BMP180;3260;52.438;13.502;2022-08-19T10:58:11;100304.00;;;26.70
6454;BMP180;3260;52.438;13.502;2022-08-19T11:00:41;100314.00;;;26.50
6454;BMP180;3260;52.438;13.502;2022-08-19T11:03:11;100313.00;;;26.80
6454;BMP180;3260;52.438;13.502;2022-08-19T11:05:39;100315.00;;;26.80
6454;BMP180;3260;52.438;13.502;2022-08-19T11:08:08;100332.00;;;26.40
6454;BMP180;3260;52.438;13.502;2022-08-19T11:10:50;100299.00;;;26.80
6454;BMP180;3260;52.438;13.502;2022-08-19T11:13:20;100323.00;;;26.90
6454;BMP180;3260;52.438;13.502;2022-08-19T11:15:57;100321.00;;;26.80
6454;BMP180;3260;52.438;13.502;2022-08-19T11:18:35;100315.00;;;27.20
6454;BMP180;3260;52.438;13.502;2022-08-19T11:21:14;100321.00;;;27.30
6454;BMP180;3260;52.438;13.502;2022-08-19T11:23:45;100338.00;;;27.10
6454;BMP180;3260;52.438;13.502;2022-08-19T11:26:15;100336.00;;;26.70
6454;BMP180;3260;52.438;13.502;2022-08-19T11:28:44;100333.00;;;27.00
6454;BMP180;3260;52.438;13.502;2022-08-19T11:31:16;100337.00;;;26.50
6454;BMP180;3260;52.438;13.502;2022-08-19T11:33:46;100331.00;;;26.50
6454;BMP180;3260;52.438;13.502;2022-08-19T11:36:18;100335.00;;;26.50
6454;BMP180;3260;52.438;13.502;2022-08-19T11:38:48;100330.00;;;26.70
6454;BMP180;3260;52.438;13.502;2022-08-19T11:41:19;100325.00;;;27.10
6454;BMP180;3260;52.438;13.502;2022-08-19T11:43:48;100338.00;;;26.80
6454;BMP180;3260;52.438;13.502;2022-08-19T11:46:17;100341.00;;;26.60
6454;BMP180;3260;52.438;13.502;2022-08-19T11:48:46;100344.00;;;26.60
6454;BMP180;3260;52.438;13.502;2022-08-19T11:51:20;100336.00;;;26.90
6454;BMP180;3260;52.438;13.502;2022-08-19T11:53:48;100349.00;;;27.10
6454;BMP180;3260;52.438;13.502;2022-08-19T11:56:18;100351.00;;;26.80
6454;BMP180;3260;52.438;13.502;2022-08-19T11:58:47;100350.00;;;27.20
6454;BMP180;3260;52.438;13.502;2022-08-19T12:01:18;100349.00;;;28.70
6454;BMP180;3260;52.438;13.502;2022-08-19T12:03:50;100358.00;;;30.80
6454;BMP180;3260;52.438;13.502;2022-08-19T12:06:22;100364.00;;;30.80
6454;BMP180;3260;52.438;13.502;2022-08-19T12:08:52;100361.00;;;29.70
6454;BMP180;3260;52.438;13.502;2022-08-19T12:11:21;100371.00;;;28.40
6454;BMP180;3260;52.438;13.502;2022-08-19T12:13:49;100361.00;;;27.80
6454;BMP180;3260;52.438;13.502;2022-08-19T12:16:22;100372.00;;;27.50
6454;BMP180;3260;52.438;13.502;2022-08-19T12:18:52;100374.00;;;28.10
6454;BMP180;3260;52.438;13.502;2022-08-19T12:21:25;100374.00;;;27.60
6454;BMP180;3260;52.438;13.502;2022-08-19T12:23:57;100371.00;;;28.00
6454;BMP180;3260;52.438;13.502;2022-08-19T12:26:27;100364.00;;;27.90
6454;BMP180;3260;52.438;13.502;2022-08-19T12:28:59;100368.00;;;27.60
6454;BMP180;3260;52.438;13.502;2022-08-19T12:31:28;100375.00;;;29.10
6454;BMP180;3260;52.438;13.502;2022-08-19T12:33:58;100365.00;;;29.80
6454;BMP180;3260;52.438;13.502;2022-08-19T12:36:29;100381.00;;;29.10
6454;BMP180;3260;52.438;13.502;2022-08-19T12:38:59;100378.00;;;29.30
6454;BMP180;3260;52.438;13.502;2022-08-19T12:41:27;100383.00;;;28.60
6454;BMP180;3260;52.438;13.502;2022-08-19T12:43:55;100378.00;;;28.50
6454;BMP180;3260;52.438;13.502;2022-08-19T12:46:26;100374.00;;;28.90
6454;BMP180;3260;52.438;13.502;2022-08-19T12:48:57;100361.00;;;28.20
6454;BMP180;3260;52.438;13.502;2022-08-19T12:51:31;100368.00;;;28.20
6454;BMP180;3260;52.438;13.502;2022-08-19T12:53:59;100368.00;;;28.70
6454;BMP180;3260;52.438;13.502;2022-08-19T12:56:28;100373.00;;;30.10
6454;BMP180;3260;52.438;13.502;2022-08-19T12:58:56;100384.00;;;33.00
6454;BMP180;3260;52.438;13.502;2022-08-19T13:01:24;100380.00;;;34.00
6454;BMP180;3260;52.438;13.502;2022-08-19T13:03:53;100388.00;;;33.50
6454;BMP180;3260;52.438;13.502;2022-08-19T13:06:22;100393.00;;;32.00
6454;BMP180;3260;52.438;13.502;2022-08-19T13:08:51;100394.00;;;30.40
6454;BMP180;3260;52.438;13.502;2022-08-19T13:11:25;100396.00;;;29.00
6454;BMP180;3260;52.438;13.502;2022-08-19T13:13:53;100391.00;;;28.30
6454;BMP180;3260;52.438;13.502;2022-08-19T13:16:22;100392.00;;;28.70
6454;BMP180;3260;52.438;13.502;2022-08-19T13:18:51;100394.00;;;29.30
6454;BMP180;3260;52.438;13.502;2022-08-19T13:21:24;100383.00;;;28.70
6454;BMP180;3260;52.438;13.502;2022-08-19T13:23:54;100393.00;;;29.10
6454;BMP180;3260;52.438;13.502;2022-08-19T13:26:23;100385.00;;;28.90
6454;BMP180;3260;52.438;13.502;2022-08-19T13:28:51;100382.00;;;28.80
6454;BMP180;3260;52.438;13.502;2022-08-19T13:31:40;100387.00;;;29.50
6454;BMP180;3260;52.438;13.502;2022-08-19T13:34:32;100391.00;;;30.50
6454;BMP180;3260;52.438;13.502;2022-08-19T13:37:04;100380.00;;;30.60
6454;BMP180;3260;52.438;13.502;2022-08-19T13:39:34;100381.00;;;29.20
6454;BMP180;3260;52.438;13.502;2022-08-19T13:42:04;100376.00;;;29.10
6454;BMP180;3260;52.438;13.502;2022-08-19T13:44:34;100382.00;;;29.20
6454;BMP180;3260;52.438;13.502;2022-08-19T13:47:04;100384.00;;;29.80
6454;BMP180;3260;52.438;13.502;2022-08-19T13:49:35;100390.00;;;28.70
6454;BMP180;3260;52.438;13.502;2022-08-19T13:52:05;100386.00;;;27.90
6454;BMP180;3260;52.438;13.502;2022-08-19T13:54:34;100378.00;;;27.60
6454;BMP180;3260;52.438;13.502;2022-08-19T13:57:02;100385.00;;;27.50
6454;BMP180;3260;52.438;13.502;2022-08-19T13:59:30;100386.00;;;27.30
6454;BMP180;3260;52.438;13.502;2022-08-19T14:02:00;100377.00;;;27.80
6454;BMP180;3260;52.438;13.502;2022-08-19T14:04:28;100378.00;;;27.80
6454;BMP180;3260;52.438;13.502;2022-08-19T14:06:56;100376.00;;;27.40
6454;BMP180;3260;52.438;13.502;2022-08-19T14:09:26;100375.00;;;27.20
6454;BMP180;3260;52.438;13.502;2022-08-19T14:11:54;100370.00;;;27.20
6454;BMP180;3260;52.438;13.502;2022-08-19T14:14:22;100379.00;;;27.10
6454;BMP180;3260;52.438;13.502;2022-08-19T14:16:51;100372.00;;;27.20
6454;BMP180;3260;52.438;13.502;2022-08-19T14:19:19;100372.00;;;26.70
6454;BMP180;3260;52.438;13.502;2022-08-19T14:21:49;100379.00;;;26.60
6454;BMP180;3260;52.438;13.502;2022-08-19T14:24:17;100374.00;;;26.50
6454;BMP180;3260;52.438;13.502;2022-08-19T14:26:46;100375.00;;;26.90
6454;BMP180;3260;52.438;13.502;2022-08-19T14:29:15;100376.00;;;27.00
6454;BMP180;3260;52.438;13.502;2022-08-19T14:31:44;100371.00;;;26.40
6454;BMP180;3260;52.438;13.502;2022-08-19T14:34:12;100383.00;;;26.50
6454;BMP180;3260;52.438;13.502;2022-08-19T14:36:40;100384.00;;;26.60
6454;BMP180;3260;52.438;13.502;2022-08-19T14:39:09;100374.00;;;26.50
6454;BMP180;3260;52.438;13.502;2022-08-19T14:41:40;100374.00;;;27.20
6454;BMP180;3260;52.438;13.502;2022-08-19T14:44:10;100375.00;;;27.00
6454;BMP180;3260;52.438;13.502;2022-08-19T14:46:39;100378.00;;;27.00
6454;BMP180;3260;52.438;13.502;2022-08-19T14:49:15;100374.00;;;27.10
6454;BMP180;3260;52.438;13.502;2022-08-19T14:51:43;100378.00;;;26.70
6454;BMP180;3260;52.438;13.502;2022-08-19T14:54:13;100388.00;;;26.50
6454;BMP180;3260;52.438;13.502;2022-08-19T14:56:41;100383.00;;;26.50
6454;BMP180;3260;52.438;13.502;2022-08-19T14:59:11;100387.00;;;26.10
6454;BMP180;3260;52.438;13.502;2022-08-19T15:01:39;100396.00;;;26.40
6454;BMP180;3260;52.438;13.502;2022-08-19T15:04:08;100399.00;;;26.20
6454;BMP180;3260;52.438;13.502;2022-08-19T15:06:36;100395.00;;;26.50
6454;BMP180;3260;52.438;13.502;2022-08-19T15:09:05;100404.00;;;26.30
6454;BMP180;3260;52.438;13.502;2022-08-19T15:11:33;100408.00;;;26.10
6454;BMP180;3260;52.438;13.502;2022-08-19T15:14:01;100412.00;;;26.00
6454;BMP180;3260;52.438;13.502;2022-08-19T15:16:31;100415.00;;;26.30
6454;BMP180;3260;52.438;13.502;2022-08-19T15:19:00;100417.00;;;26.40
6454;BMP180;3260;52.438;13.502;2022-08-19T15:21:29;100418.00;;;26.20
6454;BMP180;3260;52.438;13.502;2022-08-19T15:23:58;100420.00;;;25.60
6454;BMP180;3260;52.438;13.502;2022-08-19T15:26:27;100430.00;;;25.80
6454;BMP180;3260;52.438;13.502;2022-08-19T15:29:00;100412.00;;;25.30
6454;BMP180;3260;52.438;13.502;2022-08-19T15:31:30;100418.00;;;24.80
6454;BMP180;3260;52.438;13.502;2022-08-19T15:34:03;100434.00;;;24.70
6454;BMP180;3260;52.438;13.502;2022-08-19T15:36:32;100415.00;;;24.50
6454;BMP180;3260;52.438;13.502;2022-08-19T15:39:03;100430.00;;;24.60
6454;BMP180;3260;52.438;13.502;2022-08-19T15:41:32;100418.00;;;25.00
6454;BMP180;3260;52.438;13.502;2022-08-19T15:44:06;100423.00;;;24.70
6454;BMP180;3260;52.438;13.502;2022-08-19T15:46:39;100413.00;;;25.00
6454;BMP180;3260;52.438;13.502;2022-08-19T15:49:10;100410.00;;;24.90
6454;BMP180;3260;52.438;13.502;2022-08-19T15:51:40;100408.00;;;25.20
6454;BMP180;3260;52.438;13.502;2022-08-19T15:54:16;100405.00;;;24.80
6454;BMP180;3260;52.438;13.502;2022-08-19T15:56:49;100408.00;;;24.90
6454;BMP180;3260;52.438;13.502;2022-08-19T15:59:37;100417.00;;;24.70
6454;BMP180;3260;52.438;13.502;2022-08-19T16:02:28;100422.00;;;24.80
6454;BMP180;3260;52.438;13.502;2022-08-19T16:05:18;100426.00;;;24.40
6454;BMP180;3260;52.438;13.502;2022-08-19T16:08:12;100423.00;;;24.80
6454;BMP180;3260;52.438;13.502;2022-08-19T16:10:41;100413.00;;;24.70
6454;BMP180;3260;52.438;13.502;2022-08-19T16:13:09;100406.00;;;24.50
6454;BMP180;3260;52.438;13.502;2022-08-19T16:15:37;100399.00;;;24.60
6454;BMP180;3260;52.438;13.502;2022-08-19T16:18:11;100406.00;;;24.50
6454;BMP180;3260;52.438;13.502;2022-08-19T16:20:40;100413.00;;;25.00
6454;BMP180;3260;52.438;13.502;2022-08-19T16:23:08;100401.00;;;24.70
6454;BMP180;3260;52.438;13.502;2022-08-19T16:25:36;100411.00;;;24.50
6454;BMP180;3260;52.438;13.502;2022-08-19T16:28:05;100421.00;;;24.60
6454;BMP180;3260;52.438;13.502;2022-08-19T16:30:37;100420.00;;;24.80
6454;BMP180;3260;52.438;13.502;2022-08-19T16:33:08;100420.00;;;24.80
6454;BMP180;3260;52.438;13.502;2022-08-19T16:35:38;100421.00;;;25.00
6454;BMP180;3260;52.438;13.502;2022-08-19T16:38:06;100415.00;;;25.30
6454;BMP180;3260;52.438;13.502;2022-08-19T16:40:34;100422.00;;;25.60
6454;BMP180;3260;52.438;13.502;2022-08-19T16:43:03;100420.00;;;25.30
6454;BMP180;3260;52.438;13.502;2022-08-19T16:45:31;100407.00;;;25.70
6454;BMP180;3260;52.438;13.502;2022-08-19T16:47:59;100413.00;;;25.40
6454;BMP180;3260;52.438;13.502;2022-08-19T16:50:27;100422.00;;;25.50
6454;BMP180;3260;52.438;13.502;2022-08-19T16:53:20;100421.00;;;26.00
6454;BMP180;3260;52.438;13.502;2022-08-19T16:55:49;100418.00;;;25.70
6454;BMP180;3260;52.438;13.502;2022-08-19T16:58:26;100412.00;;;25.20
6454;BMP180;3260;52.438;13.502;2022-08-19T17:00:56;100428.00;;;24.90
6454;BMP180;3260;52.438;13.502;2022-08-19T17:03:30;100434.00;;;25.00
6454;BMP180;3260;52.438;13.502;2022-08-19T17:06:09;100420.00;;;25.00
6454;BMP180;3260;52.438;13.502;2022-08-19T17:08:49;100427.00;;;24.70
6454;BMP180;3260;52.438;13.502;2022-08-19T17:11:19;100427.00;;;24.60
6454;BMP180;3260;52.438;13.502;2022-08-19T17:13:49;100419.00;;;24.30
6454;BMP180;3260;52.438;13.502;2022-08-19T17:16:21;100407.00;;;24.50
6454;BMP180;3260;52.438;13.502;2022-08-19T17:18:50;100424.00;;;24.60
6454;BMP180;3260;52.438;13.502;2022-08-19T17:21:20;100399.00;;;24.20
6454;BMP180;3260;52.438;13.502;2022-08-19T17:23:50;100431.00;;;24.10
6454;BMP180;3260;52.438;13.502;2022-08-19T17:26:18;100428.00;;;24.40
6454;BMP180;3260;52.438;13.502;2022-08-19T17:28:49;100408.00;;;24.30
6454;BMP180;3260;52.438;13.502;2022-08-19T17:31:20;100425.00;;;24.30
6454;BMP180;3260;52.438;13.502;2022-08-19T17:33:50;100429.00;;;24.30
6454;BMP180;3260;52.438;13.502;2022-08-19T17:36:22;100436.00;;;24.10
6454;BMP180;3260;52.438;13.502;2022-08-19T17:38:54;100434.00;;;23.90
6454;BMP180;3260;52.438;13.502;2022-08-19T17:41:23;100437.00;;;24.10
6454;BMP180;3260;52.438;13.502;2022-08-19T17:43:53;100449.00;;;24.00
6454;BMP180;3260;52.438;13.502;2022-08-19T17:46:21;100439.00;;;23.80
6454;BMP180;3260;52.438;13.502;2022-08-19T17:48:51;100436.00;;;23.50
6454;BMP180;3260;52.438;13.502;2022-08-19T17:51:38;100436.00;;;23.70
6454;BMP180;3260;52.438;13.502;2022-08-19T17:54:12;100436.00;;;24.00
6454;BMP180;3260;52.438;13.502;2022-08-19T17:56:41;100458.00;;;23.70
6454;BMP180;3260;52.438;13.502;2022-08-19T17:59:12;100460.00;;;23.40
6454;BMP180;3260;52.438;13.502;2022-08-19T18:01:42;100452.00;;;23.60
6454;BMP180;3260;52.438;13.502;2022-08-19T18:04:21;100457.00;;;23.60
6454;BMP180;3260;52.438;13.502;2022-08-19T18:06:50;100472.00;;;23.60
6454;BMP180;3260;52.438;13.502;2022-08-19T18:09:29;100465.00;;;23.50
6454;BMP180;3260;52.438;13.502;2022-08-19T18:12:10;100473.00;;;23.40
6454;BMP180;3260;52.438;13.502;2022-08-19T18:14:41;100466.00;;;23.30
6454;BMP180;3260;52.438;13.502;2022-08-19T18:17:13;100456.00;;;23.30
6454;BMP180;3260;52.438;13.502;2022-08-19T18:19:45;100467.00;;;23.40
6454;BMP180;3260;52.438;13.502;2022-08-19T18:22:24;100462.00;;;23.70
6454;BMP180;3260;52.438;13.502;2022-08-19T18:24:55;100460.00;;;23.20
6454;BMP180;3260;52.438;13.502;2022-08-19T18:27:25;100472.00;;;23.30
6454;BMP180;3260;52.438;13.502;2022-08-19T18:29:54;100466.00;;;23.20
6454;BMP180;3260;52.438;13.502;2022-08-19T18:32:26;100476.00;;;23.20
6454;BMP180;3260;52.438;13.502;2022-08-19T18:34:54;100478.00;;;23.40